CheckWX is a tool to help pilots better visualize weather data.  It is not intended as a substitute for an official pre-flight weather briefing.

01:33:24 UTC

RJCH TAF
Hakodate Airport
Hakodate, Japan
TAF RJCH 232311Z 2400/2506 31006KT 9999 FEW030 BECMG 2400/2402 25013KT BECMG 2418/2421 31006KT

Feb-24@
00:00 UTC

Feb-24 @ 00:00 UTC

Feb-25@
06:00 UTC

Feb-25 @ 06:00 UTC

TAF RJCH 232311Z 2400/2506 31006KT 9999 FEW030
Wind
  • 310° at 6 KTS
Cloud Levels
  • Few at 3,000' AGL

Feb-24@
00:00 UTC

Feb-24 @ 00:00 UTC

Feb-24@
18:00 UTC

Feb-24 @ 18:00 UTC

BECMG 2400/2402 25013KT

Becoming

Becoming Conditions expected by Sun, Feb 24, 2019 @ 02:00 UTC

Wind
  • 250° at 13 KTS
Cloud Levels
  • Few at 3,000' AGL

Feb-24@
18:00 UTC

Feb-24 @ 18:00 UTC

Feb-25@
06:00 UTC

Feb-25 @ 06:00 UTC

BECMG 2418/2421 31006KT

Becoming

Becoming Conditions expected by Sun, Feb 24, 2019 @ 21:00 UTC

Wind
  • 310° at 6 KTS
Cloud Levels
  • Few at 3,000' AGL